Pagrindinis puslapis
METAR-TAF:

METAR-TAF

Oro uostai :

Tarakan, Indonezija

platuma: 03-19-36N, ilguma: 117-33-56E, Aukštis: 6 m

Dabartinis oras

Ataskaita buvo paskelbta 22 minutes, ne 10:00 UTC
Vėjas 4 kt iš Vakarų
Temperatūra 27°C
Drėgmė 84%
Slėgis 1007 hPa
Matomumas: 8000 m
Išsisklaidę debesys ne aukštis 1500 ft

METAR: WAQQ 171000Z 26004KT 8000 SCT015 27/24 Q1007

Laikas: 17:22 (10:22 UTC)

Prognozė

Ataskaita buvo paskelbta 5 valandos ir 22 minutes, ne 05:00 UTC
Prognozė galioja nuo 17 metu 06 UTC su 17 metu 18 UTC
Vėjas 5 kt iš Vakarų
Matomumas: 6000 m
Išsisklaidę debesys ne aukštis 1500 ft
Tapsmas
nuo 17 metu 06 UTC su 17 metu 08 UTC
Vėjas 4 kt iš Pietryčių
Matomumas 10 km arba daugiau

TAF: WAQQ 170500Z 1706/1718 28005KT 6000 SCT015 BECMG 1706/1708 13004KT 9999

Orai ataskaitas ir orų prognozės (METAR, TAF).

turimą stotys yra geltonos ir raudonos taškus žemėlapyje.

Perkelti pele per norėdami pamatyti stoties vardą.

Tada spustelėkite, norėdami matyti oro stebėjimo ir prognozės.

Norėdami pakeisti žemėlapį: spustelėkite ant žalios mygtukų su juodo kryžiaus žemyn,; žalią mygtuką su brūkšneliu, jei norite nutolinti; arba žalių rodyklių gretimoms žemėlapius.


METAR-TAF: